Time;durP1;ratioP1;P1;durP2;ratioP2;P2;SDS_P1;SDS_P2;PMS_P1;PMS_P2;Temp;Humidity;BMP_temperature;BMP_pressure;BME280_temperature;BME280_humidity;BME280_pressure;Samples;Min_cycle;Max_cycle;Signal;HPM_P1;HPM_P2
2022/08/23 00:15:25;;;;;;;11.80;10.50;;;;;;;18.19;93.55;100266.25;110653;1266;22028;-89
2022/08/23 00:39:06;;;;;;;;;;;;;;;;;;;;;
2022/08/23 01:02:35;;;;;;;24.40;21.90;;;;;;;18.20;93.83;100266.61;110963;1254;22002;-86
2022/08/23 01:06:21;;;;;;;23.10;20.70;;;;;;;18.20;93.61;100275.13;110514;1263;21942;-86
2022/08/23 01:10:41;;;;;;;22.70;20.50;;;;;;;18.19;93.75;100277.93;110732;1263;22007;-87
2022/08/23 01:14:19;;;;;;;21.50;19.50;;;;;;;18.17;93.80;100284.49;106906;1263;5112399;-87
2022/08/23 01:21:45;;;;;;;18.30;15.70;;;;;;;18.15;93.77;100275.63;110890;1263;22093;-89
2022/08/23 01:28:53;;;;;;;13.90;12.40;;;;;;;18.12;93.92;100287.04;111274;1261;22395;-89
2022/08/23 01:39:25;;;;;;;13.30;12.10;;;;;;;18.09;93.97;100300.46;109718;1266;22016;-86
2022/08/23 01:42:30;;;;;;;13.90;12.50;;;;;;;18.10;94.05;100304.70;109773;1267;22014;-87
2022/08/23 01:46:28;;;;;;;15.90;14.40;;;;;;;18.08;93.85;100300.61;110853;1263;21997;-88
2022/08/23 01:50:06;;;;;;;16.00;14.40;;;;;;;18.06;93.83;100304.23;110199;1266;22440;-90
2022/08/23 01:54:22;;;;;;;14.90;13.50;;;;;;;18.05;93.97;100305.20;110679;1254;21937;-87
2022/08/23 02:01:52;;;;;;;13.70;12.10;;;;;;;18.00;93.88;100296.43;110569;1263;22097;-87
2022/08/23 02:20:18;;;;;;;;;;;;;;;;;;;;;
2022/08/23 02:39:06;;;;;;;;;;;;;;;;;;;;;
2022/08/23 02:46:34;;;;;;;10.40;4.80;;;;;;;17.83;94.25;100301.08;111029;1257;22093;-88
2022/08/23 03:17:13;;;;;;;;;;;;;;;;;;;;;
2022/08/23 03:38:57;;;;;;;;;;;;;;;;;;;;;
2022/08/23 03:49:40;;;;;;;8.70;4.90;;;;;;;17.67;94.21;100274.31;109369;1267;22006;-85
2022/08/23 03:52:24;;;;;;;10.50;6.60;;;;;;;17.66;94.45;100278.15;108695;1272;22032;-84
2022/08/23 03:55:05;;;;;;;12.10;6.20;;;;;;;17.67;94.53;100274.70;108586;1275;22452;-85
2022/08/23 03:57:58;;;;;;;9.50;6.50;;;;;;;17.66;94.37;100273.54;108667;1275;21988;-84
2022/08/23 04:00:39;;;;;;;7.00;6.20;;;;;;;17.65;94.47;100274.49;108480;1275;23266;-83
2022/08/23 04:03:17;;;;;;;10.00;6.30;;;;;;;17.64;94.58;100285.35;108441;1281;22018;-85
2022/08/23 04:06:19;;;;;;;7.60;6.40;;;;;;;17.63;94.49;100297.23;108419;1281;23065;-84
2022/08/23 04:09:06;;;;;;;10.90;6.40;;;;;;;17.61;94.49;100305.17;108495;1281;23831;-85
2022/08/23 04:11:39;;;;;;;12.40;7.50;;;;;;;17.60;94.60;100312.95;108808;1276;22000;-85
2022/08/23 04:14:15;;;;;;;10.90;7.50;;;;;;;17.60;94.70;100309.30;108744;1276;22046;-83
2022/08/23 04:16:57;;;;;;;10.80;8.00;;;;;;;17.59;94.67;100300.14;108320;1281;22026;-83
2022/08/23 04:19:34;;;;;;;;;;;;;;;17.58;94.74;100296.77;108440;1280;22017;-83
2022/08/23 04:22:17;;;;;;;8.70;7.80;;;;;;;17.52;94.77;100294.68;108322;1281;23665;-84
2022/08/23 04:24:54;;;;;;;9.10;7.40;;;;;;;17.49;94.87;100295.34;108297;1280;22003;-83
2022/08/23 04:27:36;;;;;;;17.60;9.30;;;;;;;17.48;95.02;100294.20;108183;1279;22037;-84
2022/08/23 04:30:14;;;;;;;11.70;7.60;;;;;;;17.48;94.89;100290.75;108009;1284;22002;-83
2022/08/23 04:32:56;;;;;;;8.50;7.00;;;;;;;17.50;95.10;100296.33;107956;1285;22012;-85
2022/08/23 04:36:24;;;;;;;12.50;7.30;;;;;;;17.51;95.06;100305.73;108235;1281;22016;-83
2022/08/23 04:38:58;;;;;;;12.50;8.20;;;;;;;17.50;95.16;100303.44;108347;1281;22013;-84
2022/08/23 04:44:26;;;;;;;9.40;8.30;;;;;;;17.59;95.27;100290.77;108701;1272;22955;-84
2022/08/23 04:46:59;;;;;;;10.70;9.60;;;;;;;17.61;95.32;100283.27;108746;1273;23721;-83
2022/08/23 04:50:16;;;;;;;11.30;8.80;;;;;;;17.64;95.33;100280.02;108820;1269;21983;-84
2022/08/23 04:53:17;;;;;;;13.60;9.40;;;;;;;17.66;95.25;100288.35;109028;1270;22025;-85
2022/08/23 04:56:04;;;;;;;12.10;10.30;;;;;;;17.67;95.23;100292.27;109050;1269;21982;-83
2022/08/23 04:58:40;;;;;;;13.50;10.00;;;;;;;17.68;95.24;100289.64;108739;1276;23612;-83
2022/08/23 05:01:18;;;;;;;12.40;10.80;;;;;;;17.69;95.25;100293.95;108703;1276;22218;-84
2022/08/23 05:03:55;;;;;;;16.80;10.30;;;;;;;17.72;95.28;100293.27;108619;1276;22509;-82
2022/08/23 05:06:43;;;;;;;11.70;9.30;;;;;;;17.75;95.30;100289.48;108541;1276;22097;-85
2022/08/23 05:09:18;;;;;;;10.30;8.50;;;;;;;17.77;95.25;100282.45;108681;1276;23646;-83
2022/08/23 05:11:53;;;;;;;12.70;8.00;;;;;;;17.79;95.17;100281.38;108442;1276;23636;-83
2022/08/23 05:14:27;;;;;;;12.10;8.90;;;;;;;17.79;95.16;100281.63;108098;1281;22014;-81
2022/08/23 05:17:03;;;;;;;12.00;9.70;;;;;;;17.82;95.20;100275.92;108058;1281;22008;-82
2022/08/23 05:19:45;;;;;;;11.10;9.30;;;;;;;17.84;95.28;100283.27;108284;1281;23179;-84
2022/08/23 05:22:31;;;;;;;13.90;11.50;;;;;;;17.86;95.41;100278.86;108323;1280;22223;-84
2022/08/23 05:25:21;;;;;;;13.60;12.40;;;;;;;17.87;95.21;100281.44;108016;1284;23645;-84
2022/08/23 05:28:18;;;;;;;25.40;20.50;;;;;;;17.89;95.20;100285.34;107851;1286;22129;-84
2022/08/23 05:31:07;;;;;;;25.50;23.00;;;;;;;17.93;95.26;100296.73;108074;1286;23933;-85
2022/08/23 05:34:03;;;;;;;30.60;28.00;;;;;;;17.98;95.55;100296.32;108275;1278;23626;-85
2022/08/23 05:36:51;;;;;;;29.30;26.70;;;;;;;18.03;95.48;100298.98;108343;1282;23157;-85
2022/08/23 05:39:39;;;;;;;26.70;24.40;;;;;;;18.08;95.56;100300.23;107815;1284;24326;-83
2022/08/23 05:42:17;;;;;;;27.50;24.70;;;;;;;18.14;95.58;100304.58;107974;1285;21991;-84
2022/08/23 05:44:49;;;;;;;29.20;26.50;;;;;;;18.21;95.68;100311.67;107714;1287;22010;-85
2022/08/23 05:48:08;;;;;;;27.90;25.30;;;;;;;18.25;95.58;100323.25;107713;1287;22021;-85
2022/08/23 05:50:56;;;;;;;31.70;28.70;;;;;;;18.25;95.47;100339.81;108087;1286;22517;-84
2022/08/23 05:53:35;;;;;;;29.20;26.80;;;;;;;18.25;95.53;100344.64;107866;1286;22030;-85
2022/08/23 05:56:21;;;;;;;28.60;26.20;;;;;;;18.28;95.54;100351.64;107810;1287;22158;-85
2022/08/23 05:58:58;;;;;;;28.10;25.60;;;;;;;18.30;95.40;100364.92;108391;1284;23069;-85
2022/08/23 06:01:40;;;;;;;33.10;29.90;;;;;;;18.36;95.54;100368.50;108297;1284;23090;-85
2022/08/23 06:04:24;;;;;;;31.40;28.60;;;;;;;18.42;95.66;100374.96;108481;1278;22540;-85
2022/08/23 06:07:05;;;;;;;30.70;28.20;;;;;;;18.46;95.60;100380.77;108478;1275;22033;-85
2022/08/23 06:09:45;;;;;;;31.50;28.90;;;;;;;18.49;95.50;100378.23;108897;1275;23031;-85
2022/08/23 06:12:36;;;;;;;26.20;23.90;;;;;;;18.51;95.56;100382.09;108836;1275;21967;-85
2022/08/23 06:15:13;;;;;;;22.40;20.30;;;;;;;18.51;95.41;100381.45;109042;1269;24048;-85
2022/08/23 06:17:53;;;;;;;17.90;15.80;;;;;;;18.51;95.39;100381.56;109118;1267;21997;-85
2022/08/23 06:20:35;;;;;;;15.80;14.20;;;;;;;18.52;95.34;100381.15;109133;1270;22003;-80
2022/08/23 06:23:17;;;;;;;15.90;14.20;;;;;;;18.49;95.17;100379.90;108850;1275;23002;-84
2022/08/23 06:26:12;;;;;;;;;;;;;;;;;;;;;
2022/08/23 06:29:07;;;;;;;15.90;14.30;;;;;;;18.46;95.14;100396.80;108895;1273;22005;-85
2022/08/23 06:36:12;;;;;;;16.40;13.00;;;;;;;18.45;95.14;100407.10;109296;1272;22011;-79
2022/08/23 06:39:12;;;;;;;18.40;15.60;;;;;;;18.45;95.19;100377.02;108227;1275;23059;-79
2022/08/23 06:42:19;;;;;;;21.40;14.90;;;;;;;18.43;95.24;100363.01;108324;1275;22004;-82
2022/08/23 06:45:23;;;;;;;17.30;15.60;;;;;;;18.42;95.15;100357.62;108382;1277;22037;-79
2022/08/23 06:48:09;;;;;;;21.20;19.00;;;;;;;18.42;95.30;100354.54;108529;1279;23747;-82
2022/08/23 06:50:55;;;;;;;22.30;20.10;;;;;;;18.42;95.39;100358.69;108110;1282;22023;-84
2022/08/23 06:53:44;;;;;;;23.00;20.70;;;;;;;18.42;95.36;100366.01;107980;1281;22112;-83
2022/08/23 06:57:02;;;;;;;22.40;20.10;;;;;;;18.42;95.39;100374.20;108252;1278;22085;-81
2022/08/23 06:59:52;;;;;;;21.50;19.50;;;;;;;18.40;95.39;100385.86;108497;1273;22004;-81
2022/08/23 07:02:56;;;;;;;20.40;18.70;;;;;;;18.40;95.43;100395.73;108791;1273;23091;-82
2022/08/23 07:05:59;;;;;;;20.60;18.60;;;;;;;18.40;95.44;100409.98;108736;1273;24045;-83
2022/08/23 07:08:40;;;;;;;21.30;18.80;;;;;;;18.40;95.49;100420.44;108728;1267;23593;-81
2022/08/23 07:11:24;;;;;;;20.30;18.20;;;;;;;18.38;95.39;100425.75;109679;1270;22006;-82
2022/08/23 07:14:06;;;;;;;21.60;18.10;;;;;;;18.39;95.40;100423.84;108998;1266;22583;-82
2022/08/23 07:16:42;;;;;;;;;;;;;;;18.41;95.41;100416.64;108936;1267;22742;-82
2022/08/23 07:19:30;;;;;;;24.70;22.30;;;;;;;18.39;95.33;100406.94;108774;1269;21993;-81
2022/08/23 07:22:15;;;;;;;;;;;;;;;18.38;95.44;100399.42;109015;1267;22829;-81
2022/08/23 07:24:45;;;;;;;21.80;19.80;;;;;;;18.35;95.54;100401.34;108994;1267;22094;-83
2022/08/23 07:27:18;;;;;;;24.00;21.60;;;;;;;18.36;95.51;100407.72;108940;1267;22110;-81
2022/08/23 07:30:06;;;;;;;28.50;24.10;;;;;;;18.38;95.59;100423.77;108607;1275;22071;-82
2022/08/23 07:32:50;;;;;;;28.70;24.70;;;;;;;18.40;95.63;100438.17;108517;1276;23720;-83
2022/08/23 07:35:58;;;;;;;25.10;22.30;;;;;;;18.41;95.63;100443.55;108531;1279;22003;-83
2022/08/23 07:38:35;;;;;;;24.60;21.30;;;;;;;18.40;95.63;100440.15;107904;1284;22052;-83
2022/08/23 07:41:18;;;;;;;22.80;20.00;;;;;;;18.38;95.60;100433.93;108078;1284;22072;-82
2022/08/23 07:43:53;;;;;;;28.30;20.70;;;;;;;18.37;95.63;100434.33;107517;1287;22031;-84
2022/08/23 07:46:30;;;;;;;22.10;20.00;;;;;;;18.37;95.58;100438.98;107836;1286;22041;-82
2022/08/23 07:49:35;;;;;;;24.30;21.70;;;;;;;18.38;95.69;100441.05;108265;1281;22338;-82
2022/08/23 07:52:20;;;;;;;25.50;20.80;;;;;;;18.40;95.85;100435.48;107750;1287;23246;-83
2022/08/23 07:54:53;;;;;;;25.40;22.30;;;;;;;18.40;95.59;100434.38;107275;1287;22010;-83
2022/08/23 07:57:46;;;;;;;32.00;23.70;;;;;;;18.42;95.76;100447.29;107992;1282;22302;-84
2022/08/23 08:00:35;;;;;;;27.60;24.80;;;;;;;18.42;95.68;100458.19;107917;1284;22051;-82
2022/08/23 08:03:32;;;;;;;27.20;24.30;;;;;;;18.43;95.72;100463.48;108255;1278;23743;-82
2022/08/23 08:06:27;;;;;;;28.60;25.30;;;;;;;18.44;95.73;100463.94;108185;1279;22375;-82
2022/08/23 08:09:02;;;;;;;27.00;24.10;;;;;;;18.44;95.72;100468.05;108491;1278;22003;-82
2022/08/23 08:11:34;;;;;;;27.70;24.90;;;;;;;18.42;95.62;100474.27;108539;1275;22019;-78
2022/08/23 08:14:12;;;;;;;31.00;27.80;;;;;;;18.40;95.64;100477.05;108958;1267;23053;-77
2022/08/23 08:16:59;;;;;;;29.80;26.70;;;;;;;18.38;95.66;100476.52;108766;1267;21978;-78
2022/08/23 08:20:11;;;;;;;28.50;25.70;;;;;;;18.34;95.74;100469.80;108830;1270;23657;-79
2022/08/23 08:22:53;;;;;;;30.70;23.90;;;;;;;18.31;95.88;100455.25;108888;1270;24596;-79
2022/08/23 08:26:08;;;;;;;27.30;24.50;;;;;;;18.25;95.91;100448.59;108919;1269;22226;-78
2022/08/23 08:28:57;;;;;;;24.40;21.90;;;;;;;18.21;96.18;100461.62;108616;1273;21988;-80
2022/08/23 08:31:33;;;;;;;23.90;21.40;;;;;;;18.17;96.41;100469.30;108553;1276;21995;-79
2022/08/23 08:34:07;;;;;;;23.00;20.90;;;;;;;18.12;96.66;100457.96;108002;1284;21999;-79
2022/08/23 08:36:52;;;;;;;23.60;21.20;;;;;;;18.10;96.93;100448.73;108204;1284;22015;-84
2022/08/23 08:39:30;;;;;;;25.00;22.50;;;;;;;-40.24;58.38;60280.23;61233;1284;7505396;-84
2022/08/23 08:42:25;;;;;;;25.00;22.50;;;;;;;-131.76;19.20;23821.26;35040;1283;7506315;-83
2022/08/23 08:45:10;;;;;;;31.30;28.20;;;;;;;-128.00;-1.00;-1.00;42537;1284;18752839;-84
2022/08/23 08:47:58;;;;;;;25.70;23.10;;;;;;;-128.00;-1.00;-1.00;72649;1280;9553594;-83
2022/08/23 08:50:54;;;;;;;25.70;23.10;;;;;;;-128.00;-1.00;-1.00;20213;1284;11706436;-83
2022/08/23 08:53:50;;;;;;;35.50;32.10;;;;;;;-128.00;-1.00;-1.00;105011;1273;1002368;-83
2022/08/23 08:56:40;;;;;;;36.70;33.00;;;;;;;-128.00;-1.00;-1.00;104851;1278;1002446;-84
2022/08/23 08:59:29;;;;;;;35.00;31.30;;;;;;;-128.00;-1.00;-1.00;104799;1278;1002292;-83
2022/08/23 09:02:15;;;;;;;30.90;27.90;;;;;;;-128.00;-1.00;-1.00;104892;1278;1002560;-82
2022/08/23 09:05:21;;;;;;;33.50;30.00;;;;;;;-128.00;-1.00;-1.00;104865;1278;1002404;-83
2022/08/23 09:08:13;;;;;;;39.40;35.40;;;;;;;-128.00;-1.00;-1.00;104723;1278;1002046;-81
2022/08/23 09:11:33;;;;;;;42.70;38.10;;;;;;;-128.00;-1.00;-1.00;105065;1277;1002622;-82
2022/08/23 09:15:35;;;;;;;43.40;38.90;;;;;;;-128.00;-1.00;-1.00;104657;1275;1002499;-81
2022/08/23 09:18:23;;;;;;;43.90;39.20;;;;;;;-128.00;-1.00;-1.00;104734;1275;1002199;-81
2022/08/23 09:21:14;;;;;;;39.40;35.20;;;;;;;-128.00;-1.00;-1.00;104818;1276;1002467;-82
2022/08/23 09:24:03;;;;;;;38.50;34.30;;;;;;;-128.00;-1.00;-1.00;104895;1275;1003031;-82
2022/08/23 09:27:02;;;;;;;39.70;35.40;;;;;;;-128.00;-1.00;-1.00;104833;1275;1002322;-82
2022/08/23 09:30:12;;;;;;;35.10;31.40;;;;;;;-128.00;-1.00;-1.00;104869;1276;1002047;-83
2022/08/23 09:32:51;;;;;;;40.90;30.40;;;;;;;-128.00;-1.00;-1.00;104984;1275;1002236;-81
2022/08/23 09:35:25;;;;;;;27.90;25.00;;;;;;;-128.00;-1.00;-1.00;104931;1276;1002478;-81
2022/08/23 09:38:19;;;;;;;28.40;24.50;;;;;;;-128.00;-1.00;-1.00;105188;1272;1002006;-81
2022/08/23 09:40:52;;;;;;;18.90;17.00;;;;;;;-128.00;-1.00;-1.00;105017;1276;1002092;-82
2022/08/23 09:43:37;;;;;;;15.10;13.70;;;;;;;-128.00;-1.00;-1.00;105154;1273;1002131;-84
2022/08/23 09:46:11;;;;;;;13.50;12.10;;;;;;;-128.00;-1.00;-1.00;105156;1273;1002043;-83
2022/08/23 09:48:45;;;;;;;13.20;10.80;;;;;;;-128.00;-1.00;-1.00;105191;1273;1002605;-82
2022/08/23 09:51:35;;;;;;;11.40;10.30;;;;;;;-128.00;-1.00;-1.00;104904;1273;1002462;-84
2022/08/23 09:54:29;;;;;;;11.60;9.40;;;;;;;-128.00;-1.00;-1.00;105200;1272;1002288;-82
2022/08/23 09:57:09;;;;;;;11.00;9.30;;;;;;;-128.00;-1.00;-1.00;104594;1278;1002251;-83
2022/08/23 09:59:50;;;;;;;10.30;9.40;;;;;;;-128.00;-1.00;-1.00;104606;1278;1002484;-83
2022/08/23 10:02:32;;;;;;;7.00;6.30;;;;;;;-128.00;-1.00;-1.00;104867;1278;1002497;-81
2022/08/23 10:05:14;;;;;;;6.60;6.00;;;;;;;-128.00;-1.00;-1.00;104859;1279;1002579;-83
2022/08/23 10:08:01;;;;;;;9.20;7.60;;;;;;;-128.00;-1.00;-1.00;104989;1279;1002383;-80
2022/08/23 10:10:57;;;;;;;6.80;6.20;;;;;;;-128.00;-1.00;-1.00;105073;1272;1002076;-80
2022/08/23 10:13:42;;;;;;;5.20;4.10;;;;;;;-128.00;-1.00;-1.00;105225;1273;1002388;-78
2022/08/23 10:16:47;;;;;;;6.10;5.40;;;;;;;-128.00;-1.00;-1.00;105283;1267;1002585;-81
2022/08/23 10:19:37;;;;;;;5.70;4.50;;;;;;;-128.00;-1.00;-1.00;105606;1267;1002618;-80
2022/08/23 10:22:25;;;;;;;4.50;3.10;;;;;;;-128.00;-1.00;-1.00;105453;1270;1003192;-81
2022/08/23 10:25:54;;;;;;;3.40;3.00;;;;;;;-128.00;-1.00;-1.00;105284;1273;1002554;-80
2022/08/23 10:32:49;;;;;;;4.00;3.40;;;;;;;-128.00;-1.00;-1.00;105197;1279;1003710;-88
2022/08/23 10:36:22;;;;;;;5.40;3.70;;;;;;;-128.00;-1.00;-1.00;104953;1282;1002068;-80
2022/08/23 10:39:06;;;;;;;4.00;3.30;;;;;;;-128.00;-1.00;-1.00;104487;1282;1002475;-79
2022/08/23 10:42:28;;;;;;;3.90;3.50;;;;;;;-128.00;-1.00;-1.00;104059;1283;1002267;-81
2022/08/23 10:45:09;;;;;;;5.60;5.20;;;;;;;-128.00;-1.00;-1.00;104257;1286;1002520;-83
2022/08/23 10:48:15;;;;;;;5.00;4.20;;;;;;;-128.00;-1.00;-1.00;104042;1288;1001993;-81
2022/08/23 10:51:32;;;;;;;4.30;3.00;;;;;;;-128.00;-1.00;-1.00;103738;1294;1002449;-80
2022/08/23 10:54:58;;;;;;;3.80;2.50;;;;;;;-128.00;-1.00;-1.00;103787;1293;1002221;-80
2022/08/23 10:57:41;;;;;;;4.50;3.20;;;;;;;-128.00;-1.00;-1.00;103902;1292;1002555;-81
2022/08/23 11:00:24;;;;;;;4.20;3.10;;;;;;;-128.00;-1.00;-1.00;104190;1291;1002331;-81
2022/08/23 11:03:29;;;;;;;7.50;4.10;;;;;;;-128.00;-1.00;-1.00;103618;1291;1002197;-80
2022/08/23 11:06:36;;;;;;;6.70;3.60;;;;;;;-128.00;-1.00;-1.00;104182;1282;1002218;-80
2022/08/23 11:09:35;;;;;;;6.80;4.50;;;;;;;-128.00;-1.00;-1.00;104265;1285;1002253;-80
2022/08/23 11:12:26;;;;;;;4.50;3.90;;;;;;;-128.00;-1.00;-1.00;104627;1281;1002638;-81
2022/08/23 11:15:22;;;;;;;4.90;3.60;;;;;;;-128.00;-1.00;-1.00;104878;1280;1002278;-82
2022/08/23 11:18:00;;;;;;;5.80;3.90;;;;;;;-128.00;-1.00;-1.00;104745;1281;1002581;-82
2022/08/23 11:21:24;;;;;;;4.90;4.10;;;;;;;-128.00;-1.00;-1.00;104819;1281;1002400;-80
2022/08/23 11:24:11;;;;;;;4.60;3.60;;;;;;;-128.00;-1.00;-1.00;105206;1273;1002148;-81
2022/08/23 11:26:54;;;;;;;7.50;3.50;;;;;;;-128.00;-1.00;-1.00;105478;1267;1003283;-81
2022/08/23 11:29:47;;;;;;;13.50;12.10;;;;;;;-128.00;-1.00;-1.00;105800;1265;1002781;-81
2022/08/23 11:32:44;;;;;;;5.40;3.60;;;;;;;-128.00;-1.00;-1.00;105684;1267;1003309;-82
2022/08/23 11:35:49;;;;;;;;;;;;;;;-128.00;-1.00;-1.00;105585;1267;1002515;-80
2022/08/23 11:39:10;;;;;;;4.30;3.40;;;;;;;-128.00;-1.00;-1.00;24123;1273;7506701;-80
2022/08/23 11:42:05;;;;;;;4.30;3.40;;;;;;;-128.00;-1.00;-1.00;19832;1279;7505255;-80
2022/08/23 11:44:45;;;;;;;4.30;3.40;;;;;;;-128.00;-1.00;-1.00;19834;1279;7505296;-79
2022/08/23 11:47:38;;;;;;;4.30;3.40;;;;;;;-128.00;-1.00;-1.00;19832;1276;7505931;-81
2022/08/23 11:50:23;;;;;;;4.30;3.40;;;;;;;-128.00;-1.00;-1.00;19830;1279;7506015;-81
2022/08/23 11:53:33;;;;;;;4.30;3.40;;;;;;;-128.00;-1.00;-1.00;19850;1279;7506062;-81
2022/08/23 11:56:34;;;;;;;4.30;3.40;;;;;;;-128.00;-1.00;-1.00;19731;1283;7505247;-81
2022/08/23 11:59:18;;;;;;;4.30;3.40;;;;;;;-128.00;-1.00;-1.00;19699;1285;7504840;-80
2022/08/23 12:03:00;;;;;;;4.30;3.40;;;;;;;-128.00;-1.00;-1.00;19759;1284;7505105;-80
2022/08/23 12:05:54;;;;;;;4.30;3.40;;;;;;;-128.00;-1.00;-1.00;19754;1285;7505475;-79
2022/08/23 12:08:31;;;;;;;4.30;3.40;;;;;;;-128.00;-1.00;-1.00;19682;1286;7505948;-80
2022/08/23 12:11:05;;;;;;;4.30;3.40;;;;;;;-128.00;-1.00;-1.00;19667;1288;7506224;-81
2022/08/23 12:14:00;;;;;;;4.30;3.40;;;;;;;-128.00;-1.00;-1.00;19697;1285;7504863;-81
2022/08/23 12:16:35;;;;;;;4.30;3.40;;;;;;;-128.00;-1.00;-1.00;19740;1282;7506326;-81
2022/08/23 12:19:28;;;;;;;4.30;3.40;;;;;;;-128.00;-1.00;-1.00;19770;1282;7506086;-81
2022/08/23 12:22:07;;;;;;;4.30;3.40;;;;;;;-128.00;-1.00;-1.00;19779;1283;7506146;-81
2022/08/23 12:25:02;;;;;;;4.30;3.40;;;;;;;-128.00;-1.00;-1.00;19676;1287;7504760;-81
2022/08/23 12:27:35;;;;;;;4.30;3.40;;;;;;;-128.00;-1.00;-1.00;19730;1285;7505616;-81
2022/08/23 12:30:32;;;;;;;4.30;3.40;;;;;;;-128.00;-1.00;-1.00;19750;1285;7504944;-81
2022/08/23 12:33:43;;;;;;;4.30;3.40;;;;;;;-128.00;-1.00;-1.00;19672;1288;7507284;-81
2022/08/23 12:36:31;;;;;;;4.30;3.40;;;;;;;-128.00;-1.00;-1.00;19502;1296;7505644;-80
2022/08/23 12:39:07;;;;;;;4.30;3.40;;;;;;;-128.00;-1.00;-1.00;19578;1294;7505366;-80
2022/08/23 12:42:08;;;;;;;4.30;3.40;;;;;;;-128.00;-1.00;-1.00;19490;1296;7506588;-80
2022/08/23 12:44:38;;;;;;;4.30;3.40;;;;;;;-128.00;-1.00;-1.00;19550;1293;7505831;-81
2022/08/23 12:47:17;;;;;;;4.30;3.40;;;;;;;-128.00;-1.00;-1.00;19672;1289;7504519;-82
2022/08/23 12:49:55;;;;;;;4.30;3.40;;;;;;;-128.00;-1.00;-1.00;19688;1289;7505410;-81
2022/08/23 12:52:36;;;;;;;4.30;3.40;;;;;;;-128.00;-1.00;-1.00;19704;1287;7505751;-81
2022/08/23 12:55:18;;;;;;;4.30;3.40;;;;;;;-128.00;-1.00;-1.00;19754;1284;7505528;-81
2022/08/23 12:57:55;;;;;;;4.30;3.40;;;;;;;-128.00;-1.00;-1.00;19810;1276;7504291;-81
2022/08/23 13:00:37;;;;;;;4.30;3.40;;;;;;;-128.00;-1.00;-1.00;19787;1282;7505925;-81
2022/08/23 13:03:35;;;;;;;4.30;3.40;;;;;;;-128.00;-1.00;-1.00;19824;1279;7505197;-81
2022/08/23 13:06:14;;;;;;;4.30;3.40;;;;;;;-128.00;-1.00;-1.00;19731;1284;7505399;-81
2022/08/23 13:08:57;;;;;;;4.30;3.40;;;;;;;-128.00;-1.00;-1.00;19730;1284;7505815;-81
2022/08/23 13:11:31;;;;;;;4.30;3.40;;;;;;;-128.00;-1.00;-1.00;19846;1276;7505087;-81
2022/08/23 13:14:21;;;;;;;4.30;3.40;;;;;;;-128.00;-1.00;-1.00;18843;1281;7505920;-81
2022/08/23 13:17:38;;;;;;;4.30;3.40;;;;;;;-128.00;-1.00;-1.00;19788;1281;7504814;-81
2022/08/23 13:20:25;;;;;;;4.30;3.40;;;;;;;-128.00;-1.00;-1.00;19689;1284;7505069;-81
2022/08/23 13:23:06;;;;;;;4.30;3.40;;;;;;;-128.00;-1.00;-1.00;19680;1285;7506205;-81
2022/08/23 13:25:40;;;;;;;4.30;3.40;;;;;;;-128.00;-1.00;-1.00;19801;1282;7506068;-81
2022/08/23 13:28:34;;;;;;;4.30;3.40;;;;;;;-128.00;-1.00;-1.00;19698;1287;7505963;-81
2022/08/23 13:31:07;;;;;;;4.30;3.40;;;;;;;-128.00;-1.00;-1.00;19738;1287;7504906;-82
2022/08/23 13:33:38;;;;;;;4.30;3.40;;;;;;;-128.00;-1.00;-1.00;19759;1286;7505943;-80
2022/08/23 13:36:16;;;;;;;4.30;3.40;;;;;;;-128.00;-1.00;-1.00;19820;1281;7506321;-81
2022/08/23 13:38:48;;;;;;;4.30;3.40;;;;;;;-128.00;-1.00;-1.00;19772;1283;7505962;-81
2022/08/23 13:41:30;;;;;;;4.30;3.40;;;;;;;-128.00;-1.00;-1.00;19776;1284;7506242;-81
2022/08/23 13:44:22;;;;;;;4.30;3.40;;;;;;;-128.00;-1.00;-1.00;19773;1281;7506099;-81
2022/08/23 13:46:51;;;;;;;4.30;3.40;;;;;;;-128.00;-1.00;-1.00;19815;1276;7505981;-81
2022/08/23 13:49:20;;;;;;;4.30;3.40;;;;;;;-128.00;-1.00;-1.00;19859;1276;7504625;-81
2022/08/23 13:52:16;;;;;;;4.30;3.40;;;;;;;-128.00;-1.00;-1.00;19885;1275;7505197;-82
2022/08/23 13:55:23;;;;;;;4.30;3.40;;;;;;;-128.00;-1.00;-1.00;19943;1270;7505136;-82
2022/08/23 13:57:57;;;;;;;4.30;3.40;;;;;;;-128.00;-1.00;-1.00;19940;1270;7505125;-81
2022/08/23 14:00:28;;;;;;;4.30;3.40;;;;;;;-128.00;-1.00;-1.00;19953;1270;7505044;-79
2022/08/23 14:02:57;;;;;;;4.30;3.40;;;;;;;-128.00;-1.00;-1.00;19947;1267;7505419;-82
2022/08/23 14:05:29;;;;;;;4.30;3.40;;;;;;;-128.00;-1.00;-1.00;20006;1267;7504800;-80
2022/08/23 14:08:01;;;;;;;4.30;3.40;;;;;;;-128.00;-1.00;-1.00;19969;1269;7506825;-81
2022/08/23 14:10:32;;;;;;;4.30;3.40;;;;;;;-128.00;-1.00;-1.00;19953;1273;7505341;-81
2022/08/23 14:13:14;;;;;;;4.30;3.40;;;;;;;-128.00;-1.00;-1.00;19950;1273;7505061;-81
2022/08/23 14:15:46;;;;;;;4.30;3.40;;;;;;;-128.00;-1.00;-1.00;19883;1276;7506346;-80
2022/08/23 14:18:38;;;;;;;4.30;3.40;;;;;;;-128.00;-1.00;-1.00;19858;1276;7505077;-80
2022/08/23 14:21:27;;;;;;;4.30;3.40;;;;;;;-128.00;-1.00;-1.00;19856;1276;7506372;-80
2022/08/23 14:23:59;;;;;;;4.30;3.40;;;;;;;-128.00;-1.00;-1.00;19863;1279;7506376;-80
2022/08/23 14:26:30;;;;;;;4.30;3.40;;;;;;;-128.00;-1.00;-1.00;19765;1287;7506672;-82
2022/08/23 14:29:00;;;;;;;4.30;3.40;;;;;;;-128.00;-1.00;-1.00;19715;1287;7505485;-80
2022/08/23 14:31:35;;;;;;;4.30;3.40;;;;;;;-128.00;-1.00;-1.00;19736;1287;7505812;-81
2022/08/23 14:34:05;;;;;;;4.30;3.40;;;;;;;-128.00;-1.00;-1.00;19758;1281;7505765;-81
2022/08/23 14:36:36;;;;;;;4.30;3.40;;;;;;;-128.00;-1.00;-1.00;19685;1290;7506274;-81
2022/08/23 14:39:05;;;;;;;4.30;3.40;;;;;;;-128.00;-1.00;-1.00;19718;1287;7505646;-82
2022/08/23 14:41:36;;;;;;;4.30;3.40;;;;;;;-128.00;-1.00;-1.00;19649;1290;7506144;-79
2022/08/23 14:44:07;;;;;;;4.30;3.40;;;;;;;-128.00;-1.00;-1.00;19679;1284;7505714;-82
2022/08/23 14:46:36;;;;;;;4.30;3.40;;;;;;;-128.00;-1.00;-1.00;19819;1278;7504959;-77
2022/08/23 14:49:08;;;;;;;4.30;3.40;;;;;;;-128.00;-1.00;-1.00;19807;1275;7505790;-79
2022/08/23 14:51:41;;;;;;;4.30;3.40;;;;;;;-128.00;-1.00;-1.00;19815;1275;7506539;-78
2022/08/23 14:54:19;;;;;;;4.30;3.40;;;;;;;-128.00;-1.00;-1.00;19881;1268;7505620;-79
2022/08/23 14:56:49;;;;;;;4.30;3.40;;;;;;;-128.00;-1.00;-1.00;19944;1270;7504777;-78
2022/08/23 14:59:20;;;;;;;4.30;3.40;;;;;;;-128.00;-1.00;-1.00;19915;1270;7505695;-79
2022/08/23 15:01:52;;;;;;;4.30;3.40;;;;;;;-128.00;-1.00;-1.00;19933;1270;7505469;-79
2022/08/23 15:04:23;;;;;;;4.30;3.40;;;;;;;-128.00;-1.00;-1.00;19981;1267;7505442;-78
2022/08/23 15:07:06;;;;;;;4.30;3.40;;;;;;;-128.00;-1.00;-1.00;19901;1273;7506378;-77
2022/08/23 15:09:53;;;;;;;4.30;3.40;;;;;;;-128.00;-1.00;-1.00;19788;1278;7506074;-79
2022/08/23 15:12:23;;;;;;;4.30;3.40;;;;;;;-128.00;-1.00;-1.00;19771;1279;7505280;-78
